createdAt,value
2022-08-21T00:01:26.590Z,18.11
2022-08-21T00:04:39.615Z,18.00
2022-08-21T00:08:04.721Z,17.93
2022-08-21T00:11:12.452Z,17.86
2022-08-21T00:14:24.747Z,17.85
2022-08-21T00:17:42.572Z,17.74
2022-08-21T00:20:52.115Z,17.64
2022-08-21T00:24:00.645Z,17.50
2022-08-21T00:27:11.041Z,17.39
2022-08-21T00:30:22.903Z,17.30
2022-08-21T00:33:40.633Z,17.26
2022-08-21T00:36:48.478Z,17.27
2022-08-21T00:39:59.063Z,17.25
2022-08-21T00:43:09.656Z,17.20
2022-08-21T00:46:17.409Z,17.25
2022-08-21T00:49:27.715Z,17.24
2022-08-21T00:52:37.596Z,17.22
2022-08-21T00:55:44.980Z,17.17
2022-08-21T00:58:54.763Z,17.09
2022-08-21T01:02:03.251Z,17.07
2022-08-21T01:05:11.855Z,16.99
2022-08-21T01:08:20.922Z,16.89
2022-08-21T01:11:27.337Z,16.84
2022-08-21T01:14:36.410Z,16.81
2022-08-21T01:17:42.546Z,16.73
2022-08-21T01:21:02.376Z,16.71
2022-08-21T01:24:09.748Z,16.71
2022-08-21T01:27:16.608Z,16.72
2022-08-21T01:30:26.967Z,16.66
2022-08-21T01:33:36.152Z,16.68
2022-08-21T01:36:44.145Z,16.63
2022-08-21T01:39:54.367Z,16.59
2022-08-21T01:43:01.077Z,16.52
2022-08-21T01:46:09.427Z,16.49
2022-08-21T01:49:16.279Z,16.51
2022-08-21T01:52:25.198Z,16.51
2022-08-21T01:55:32.064Z,16.54
2022-08-21T01:58:39.989Z,16.58
2022-08-21T02:01:48.406Z,16.55
2022-08-21T02:04:56.039Z,16.53
2022-08-21T02:08:05.138Z,16.54
2022-08-21T02:11:12.941Z,16.47
2022-08-21T02:14:32.775Z,16.43
2022-08-21T02:17:44.317Z,16.42
2022-08-21T02:20:56.513Z,16.35
2022-08-21T02:24:12.413Z,16.31
2022-08-21T02:27:28.518Z,16.21
2022-08-21T02:30:40.944Z,16.19
2022-08-21T02:33:55.215Z,16.11
2022-08-21T02:37:02.376Z,16.08
2022-08-21T02:40:13.597Z,15.98
2022-08-21T02:43:21.471Z,15.98
2022-08-21T02:46:30.075Z,15.83
2022-08-21T02:49:37.369Z,15.83
2022-08-21T02:52:43.533Z,15.80
2022-08-21T02:55:54.783Z,15.80
2022-08-21T02:59:01.477Z,15.68
2022-08-21T03:02:11.289Z,15.65
2022-08-21T03:05:31.421Z,15.60
2022-08-21T03:08:48.515Z,15.63
2022-08-21T03:12:03.399Z,15.63
2022-08-21T03:15:13.255Z,15.59
2022-08-21T03:18:21.774Z,15.54
2022-08-21T03:21:37.540Z,15.52
2022-08-21T03:24:49.492Z,15.40
2022-08-21T03:28:06.363Z,15.37
2022-08-21T03:31:13.493Z,15.34
2022-08-21T03:34:26.222Z,15.34
2022-08-21T03:37:35.481Z,15.30
2022-08-21T03:40:51.731Z,15.34
2022-08-21T03:44:01.451Z,15.37
2022-08-21T03:47:26.522Z,15.29
2022-08-21T03:50:44.344Z,15.28
2022-08-21T03:54:02.668Z,15.29
2022-08-21T03:57:13.999Z,15.25
2022-08-21T04:00:37.255Z,15.21
2022-08-21T04:03:57.858Z,15.14
2022-08-21T04:07:08.542Z,15.15
2022-08-21T04:10:26.399Z,15.13
2022-08-21T04:13:44.354Z,15.04
2022-08-21T04:16:59.493Z,15.06
2022-08-21T04:20:15.974Z,15.05
2022-08-21T04:23:30.848Z,15.05
2022-08-21T04:26:52.061Z,15.03
2022-08-21T04:30:01.913Z,14.96
2022-08-21T04:33:23.949Z,14.99
2022-08-21T04:36:43.223Z,14.98
2022-08-21T04:40:05.027Z,14.94
2022-08-21T04:43:21.487Z,14.99
2022-08-21T04:46:36.408Z,15.00
2022-08-21T04:49:55.829Z,14.95
2022-08-21T04:53:26.157Z,14.99
2022-08-21T05:00:15.431Z,15.05
2022-08-21T05:03:35.653Z,15.11
2022-08-21T05:06:56.401Z,15.12
2022-08-21T05:10:22.742Z,15.13
2022-08-21T05:13:29.432Z,15.15
2022-08-21T05:16:46.927Z,15.17
2022-08-21T05:20:02.229Z,15.28
2022-08-21T05:23:26.839Z,15.40
2022-08-21T05:26:38.302Z,15.49
2022-08-21T05:29:51.487Z,15.54
2022-08-21T05:33:12.889Z,15.61
2022-08-21T05:36:23.286Z,15.70
2022-08-21T05:40:05.165Z,15.75
2022-08-21T05:43:12.499Z,15.85
2022-08-21T05:46:29.353Z,15.93
2022-08-21T05:49:36.412Z,16.06
2022-08-21T05:52:42.981Z,16.16
2022-08-21T05:55:52.674Z,16.32
2022-08-21T05:59:01.813Z,16.47
2022-08-21T06:02:10.081Z,16.62
2022-08-21T06:05:16.796Z,16.77
2022-08-21T06:08:46.108Z,16.94
2022-08-21T06:11:58.172Z,17.10
2022-08-21T06:15:06.091Z,17.28
2022-08-21T06:18:14.023Z,17.50
2022-08-21T06:21:21.186Z,17.72
2022-08-21T06:24:27.919Z,17.93
2022-08-21T06:27:36.306Z,18.09
2022-08-21T06:30:44.005Z,18.30
2022-08-21T06:33:53.443Z,18.51
2022-08-21T06:37:01.478Z,18.76
2022-08-21T06:40:12.813Z,19.16
2022-08-21T06:43:37.885Z,19.99
2022-08-21T06:46:48.278Z,21.23
2022-08-21T06:49:57.460Z,22.64
2022-08-21T06:53:07.319Z,23.91
2022-08-21T06:56:13.653Z,24.63
2022-08-21T06:59:24.541Z,24.69
2022-08-21T07:02:30.893Z,24.39
2022-08-21T07:05:38.206Z,23.89
2022-08-21T07:08:49.651Z,23.46
2022-08-21T07:12:02.722Z,23.21
2022-08-21T07:15:12.152Z,22.94
2022-08-21T07:18:20.782Z,22.87
2022-08-21T07:21:30.438Z,22.89
2022-08-21T07:24:38.281Z,23.01
2022-08-21T07:27:47.314Z,23.14
2022-08-21T07:31:00.824Z,23.29
2022-08-21T07:34:08.164Z,23.41
2022-08-21T07:37:17.344Z,23.62
2022-08-21T07:40:23.887Z,23.66
2022-08-21T07:43:28.337Z,23.83
2022-08-21T07:46:32.461Z,24.03
2022-08-21T07:49:35.185Z,24.13
2022-08-21T07:52:37.885Z,24.24
2022-08-21T07:55:40.696Z,24.40
2022-08-21T07:58:43.385Z,24.50
2022-08-21T08:01:47.831Z,24.63
2022-08-21T08:04:51.406Z,24.76
2022-08-21T08:07:54.499Z,24.83
2022-08-21T08:11:00.069Z,24.99
2022-08-21T08:14:04.760Z,24.98
2022-08-21T08:17:08.919Z,25.11
2022-08-21T08:20:13.503Z,25.27
2022-08-21T08:23:17.001Z,25.42
2022-08-21T08:26:19.746Z,25.56
2022-08-21T08:29:23.204Z,25.68
2022-08-21T08:32:27.289Z,25.83
2022-08-21T08:35:30.221Z,25.98
2022-08-21T08:38:33.824Z,26.15
2022-08-21T08:41:38.656Z,26.25
2022-08-21T08:44:42.581Z,26.17
2022-08-21T08:47:50.274Z,26.12
2022-08-21T08:50:57.382Z,26.11
2022-08-21T08:54:04.848Z,26.26
2022-08-21T08:57:12.014Z,26.38
2022-08-21T09:00:18.838Z,26.49
2022-08-21T09:03:24.286Z,26.54
2022-08-21T09:07:02.025Z,26.69
2022-08-21T09:10:18.382Z,26.72
2022-08-21T09:13:26.306Z,26.69
2022-08-21T09:16:38.081Z,26.77
2022-08-21T09:19:56.558Z,26.85
2022-08-21T09:23:10.830Z,26.97
2022-08-21T09:26:16.308Z,27.11
2022-08-21T09:29:22.450Z,27.23
2022-08-21T09:32:37.128Z,27.28
2022-08-21T09:35:53.913Z,27.33
2022-08-21T09:38:57.595Z,27.40
2022-08-21T09:42:02.518Z,27.40
2022-08-21T09:45:14.753Z,27.38
2022-08-21T09:48:22.612Z,27.50
2022-08-21T09:51:33.421Z,27.62
2022-08-21T09:54:40.625Z,27.76
2022-08-21T09:57:50.606Z,27.79
2022-08-21T10:01:00.234Z,27.82
2022-08-21T10:04:07.103Z,27.98
2022-08-21T10:07:13.441Z,28.08
2022-08-21T10:10:20.025Z,28.03
2022-08-21T10:13:29.673Z,27.91
2022-08-21T10:16:44.940Z,27.72
2022-08-21T10:19:57.985Z,27.62
2022-08-21T10:23:13.017Z,27.88
2022-08-21T10:26:28.282Z,28.02
2022-08-21T10:29:45.969Z,28.12
2022-08-21T10:33:03.736Z,28.23
2022-08-21T10:36:14.390Z,28.12
2022-08-21T10:39:36.187Z,28.30
2022-08-21T10:42:49.124Z,28.49
2022-08-21T10:46:04.256Z,28.51
2022-08-21T10:49:19.606Z,28.60
2022-08-21T10:52:36.615Z,28.74
2022-08-21T10:55:46.681Z,28.67
2022-08-21T10:59:02.379Z,28.47
2022-08-21T11:02:16.661Z,28.55
2022-08-21T11:05:26.520Z,28.50
2022-08-21T11:08:34.182Z,28.06
2022-08-21T11:11:47.234Z,27.90
2022-08-21T11:15:07.055Z,28.11
2022-08-21T11:18:20.487Z,28.31
2022-08-21T11:21:38.056Z,28.50
2022-08-21T11:24:46.533Z,28.70
2022-08-21T11:27:54.816Z,28.74
2022-08-21T11:31:20.006Z,28.94
2022-08-21T11:34:35.714Z,29.12
2022-08-21T11:37:52.372Z,29.41
2022-08-21T11:41:07.574Z,29.50
2022-08-21T11:44:23.481Z,29.55
2022-08-21T11:47:35.441Z,29.66
2022-08-21T11:50:41.332Z,29.72
2022-08-21T11:53:54.250Z,29.69
2022-08-21T11:57:03.366Z,29.59
2022-08-21T12:00:18.583Z,29.34
2022-08-21T12:03:29.442Z,29.13
2022-08-21T12:06:34.705Z,29.00
2022-08-21T12:10:06.707Z,28.98
2022-08-21T12:13:57.238Z,28.97
2022-08-21T12:17:38.825Z,28.30
2022-08-21T12:20:58.282Z,28.37
2022-08-21T12:24:17.268Z,28.00
2022-08-21T12:27:28.370Z,27.57
2022-08-21T12:30:38.599Z,27.13
2022-08-21T12:33:43.445Z,27.12
2022-08-21T12:36:51.853Z,27.59
2022-08-21T12:39:57.371Z,28.16
2022-08-21T12:43:02.961Z,28.50
2022-08-21T12:46:06.840Z,28.65
2022-08-21T12:49:17.012Z,28.56
2022-08-21T12:52:24.053Z,28.80
2022-08-21T12:55:33.450Z,29.09
2022-08-21T12:58:36.321Z,29.36
2022-08-21T13:01:46.457Z,29.51
2022-08-21T13:04:51.993Z,29.64
2022-08-21T13:07:54.986Z,29.63
2022-08-21T13:11:09.165Z,29.61
2022-08-21T13:14:25.270Z,29.51
2022-08-21T13:17:34.441Z,29.65
2022-08-21T13:20:41.505Z,29.92
2022-08-21T13:23:45.025Z,30.21
2022-08-21T13:26:50.440Z,30.16
2022-08-21T13:30:05.137Z,30.19
2022-08-21T13:33:12.861Z,30.23
2022-08-21T13:36:22.183Z,30.30
2022-08-21T13:39:25.606Z,30.20
2022-08-21T13:42:28.443Z,30.30
2022-08-21T13:45:34.913Z,30.13
2022-08-21T13:48:39.301Z,30.11
2022-08-21T13:51:44.404Z,30.10
2022-08-21T13:54:55.826Z,30.37
2022-08-21T13:58:02.677Z,30.39
2022-08-21T14:01:06.713Z,30.62
2022-08-21T14:04:24.522Z,30.63
2022-08-21T14:07:33.213Z,30.67
2022-08-21T14:10:42.329Z,30.68
2022-08-21T14:13:48.145Z,30.71
2022-08-21T14:16:57.362Z,30.66
2022-08-21T14:20:00.446Z,30.71
2022-08-21T14:23:05.267Z,30.70
2022-08-21T14:26:09.116Z,30.66
2022-08-21T14:29:12.521Z,30.36
2022-08-21T14:32:21.702Z,30.37
2022-08-21T14:35:27.335Z,30.53
2022-08-21T14:38:33.454Z,30.68
2022-08-21T14:41:37.133Z,30.89
2022-08-21T14:44:39.841Z,31.13
2022-08-21T14:47:43.559Z,31.27
2022-08-21T14:50:46.270Z,31.17
2022-08-21T14:53:50.410Z,31.02
2022-08-21T14:56:53.432Z,31.12
2022-08-21T15:00:01.204Z,31.13
2022-08-21T15:03:05.098Z,31.08
2022-08-21T15:06:10.108Z,31.00
2022-08-21T15:09:14.198Z,31.09
2022-08-21T15:12:16.951Z,31.15
2022-08-21T15:15:19.893Z,31.15
2022-08-21T15:18:23.283Z,31.10
2022-08-21T15:21:26.011Z,30.97
2022-08-21T15:24:30.230Z,30.78
2022-08-21T15:27:33.001Z,30.72
2022-08-21T15:30:36.849Z,30.67
2022-08-21T15:33:39.568Z,30.66
2022-08-21T15:36:42.587Z,30.67
2022-08-21T15:39:52.289Z,30.69
2022-08-21T15:43:01.156Z,30.70
2022-08-21T15:46:04.002Z,30.55
2022-08-21T15:49:06.805Z,30.50
2022-08-21T15:52:09.767Z,30.49
2022-08-21T15:55:14.125Z,30.40
2022-08-21T15:58:18.049Z,30.15
2022-08-21T16:01:21.924Z,30.13
2022-08-21T16:04:27.828Z,29.98
2022-08-21T16:07:30.680Z,29.93
2022-08-21T16:10:37.573Z,29.88
2022-08-21T16:13:43.653Z,29.87
2022-08-21T16:16:47.029Z,29.64
2022-08-21T16:19:49.738Z,29.55
2022-08-21T16:22:53.274Z,29.54
2022-08-21T16:25:59.611Z,29.49
2022-08-21T16:29:04.006Z,29.41
2022-08-21T16:32:07.709Z,29.13
2022-08-21T16:35:13.490Z,28.96
2022-08-21T16:38:16.362Z,28.81
2022-08-21T16:41:21.305Z,28.44
2022-08-21T16:44:24.410Z,28.46
2022-08-21T16:47:27.571Z,28.11
2022-08-21T16:50:30.654Z,27.92
2022-08-21T16:53:33.497Z,27.80
2022-08-21T16:56:40.035Z,27.68
2022-08-21T16:59:43.657Z,27.55
2022-08-21T17:02:49.214Z,27.48
2022-08-21T17:05:51.950Z,27.40
2022-08-21T17:08:54.656Z,27.34
2022-08-21T17:11:58.773Z,27.21
2022-08-21T17:15:06.002Z,27.11
2022-08-21T17:18:12.555Z,27.02
2022-08-21T17:21:18.527Z,26.91
2022-08-21T17:24:22.237Z,26.83
2022-08-21T17:27:28.099Z,26.76
2022-08-21T17:30:31.205Z,26.65
2022-08-21T17:33:45.317Z,26.55
2022-08-21T17:36:48.493Z,26.38
2022-08-21T17:39:52.632Z,26.18
2022-08-21T17:42:59.618Z,25.99
2022-08-21T17:46:02.976Z,25.76
2022-08-21T17:49:06.154Z,25.52
2022-08-21T17:52:10.365Z,25.34
2022-08-21T17:55:17.710Z,25.15
2022-08-21T17:58:21.816Z,24.91
2022-08-21T18:01:28.824Z,24.77
2022-08-21T18:04:32.314Z,24.59
2022-08-21T18:07:35.065Z,24.38
2022-08-21T18:14:42.133Z,24.07
2022-08-21T18:17:47.830Z,23.91
2022-08-21T18:20:51.168Z,23.74
2022-08-21T18:23:55.741Z,23.64
2022-08-21T18:26:58.584Z,23.51
2022-08-21T18:30:03.082Z,23.39
2022-08-21T18:33:05.990Z,23.24
2022-08-21T18:36:08.820Z,23.15
2022-08-21T18:39:35.394Z,23.04
2022-08-21T18:42:40.777Z,22.90
2022-08-21T18:45:47.537Z,22.78
2022-08-21T18:48:50.261Z,22.66
2022-08-21T18:51:53.748Z,22.59
2022-08-21T18:54:56.635Z,22.52
2022-08-21T18:58:01.317Z,22.42
2022-08-21T19:01:05.738Z,22.35
2022-08-21T19:04:21.334Z,22.23
2022-08-21T19:07:32.790Z,22.16
2022-08-21T19:10:36.965Z,22.14
2022-08-21T19:13:40.515Z,22.05
2022-08-21T19:16:48.061Z,21.99
2022-08-21T19:19:52.011Z,21.94
2022-08-21T19:22:56.584Z,21.91
2022-08-21T19:26:03.020Z,21.91
2022-08-21T19:29:09.358Z,21.81
2022-08-21T19:32:14.593Z,21.71
2022-08-21T19:35:17.997Z,21.64
2022-08-21T19:38:21.324Z,21.60
2022-08-21T19:41:26.845Z,21.53
2022-08-21T19:44:39.629Z,21.49
2022-08-21T19:47:53.031Z,21.43
2022-08-21T19:51:01.075Z,21.40
2022-08-21T19:54:10.933Z,21.32
2022-08-21T19:57:19.577Z,21.28
2022-08-21T20:00:27.633Z,21.25
2022-08-21T20:03:37.311Z,21.16
2022-08-21T20:06:43.676Z,21.05
2022-08-21T20:09:54.138Z,20.93
2022-08-21T20:13:01.303Z,20.84
2022-08-21T20:16:16.297Z,20.69
2022-08-21T20:19:41.475Z,20.63
2022-08-21T20:22:48.590Z,20.53
2022-08-21T20:26:05.981Z,20.43
2022-08-21T20:29:31.497Z,20.41
2022-08-21T20:32:46.593Z,20.43
2022-08-21T20:36:00.660Z,20.36
2022-08-21T20:39:09.480Z,20.40
2022-08-21T20:42:30.689Z,20.40
2022-08-21T20:45:41.340Z,20.37
2022-08-21T20:48:50.512Z,20.38
2022-08-21T20:52:02.104Z,20.31
2022-08-21T20:55:29.115Z,20.24
2022-08-21T20:58:56.018Z,20.13
2022-08-21T21:02:13.610Z,20.05
2022-08-21T21:05:23.614Z,19.98
2022-08-21T21:08:36.604Z,19.97
2022-08-21T21:11:51.364Z,19.85
2022-08-21T21:15:00.778Z,19.83
2022-08-21T21:18:14.227Z,19.78
2022-08-21T21:21:32.487Z,19.72
2022-08-21T21:24:45.431Z,19.66
2022-08-21T21:27:56.448Z,19.59
2022-08-21T21:31:03.995Z,19.53
2022-08-21T21:37:46.043Z,19.38
2022-08-21T21:41:09.444Z,19.33
2022-08-21T21:44:25.747Z,19.19
2022-08-21T21:47:43.923Z,19.12
2022-08-21T21:51:00.935Z,19.02
2022-08-21T21:54:22.823Z,19.01
2022-08-21T21:57:52.447Z,18.96
2022-08-21T22:01:09.952Z,18.94
2022-08-21T22:04:28.556Z,18.89
2022-08-21T22:07:41.845Z,18.88
2022-08-21T22:10:54.660Z,18.89
2022-08-21T22:14:11.476Z,18.83
2022-08-21T22:17:33.000Z,18.76
2022-08-21T22:20:46.515Z,18.75
2022-08-21T22:23:56.436Z,18.69
2022-08-21T22:27:10.190Z,18.59
2022-08-21T22:30:51.581Z,18.53
2022-08-21T22:34:05.257Z,18.39
2022-08-21T22:37:11.641Z,18.39
2022-08-21T22:40:23.553Z,18.33
2022-08-21T22:43:28.988Z,18.30
2022-08-21T22:46:43.175Z,18.35
2022-08-21T22:49:50.351Z,18.39
2022-08-21T22:52:57.373Z,18.43
2022-08-21T22:56:02.031Z,18.46
2022-08-21T22:59:07.717Z,18.46
2022-08-21T23:02:30.947Z,18.46
2022-08-21T23:05:35.798Z,18.52
2022-08-21T23:08:39.774Z,18.60
2022-08-21T23:11:44.805Z,18.60
2022-08-21T23:14:55.181Z,18.57
2022-08-21T23:18:13.463Z,18.52
2022-08-21T23:21:22.885Z,18.47
2022-08-21T23:24:49.765Z,18.42
2022-08-21T23:28:04.231Z,18.32
2022-08-21T23:31:17.488Z,18.20
2022-08-21T23:34:28.784Z,18.19
2022-08-21T23:37:51.421Z,18.20
2022-08-21T23:40:59.773Z,18.16
2022-08-21T23:44:16.524Z,18.16
2022-08-21T23:47:36.092Z,18.12
2022-08-21T23:50:49.681Z,18.12
2022-08-21T23:54:04.384Z,18.10
2022-08-21T23:57:19.730Z,18.10
